Time;durP1;ratioP1;P1;durP2;ratioP2;P2;SDS_P1;SDS_P2;PMS_P1;PMS_P2;Temp;Humidity;BMP_temperature;BMP_pressure;BME280_temperature;BME280_humidity;BME280_pressure;Samples;Min_cycle;Max_cycle;Signal;HPM_P1;HPM_P2
2023/04/17 00:00:20;;;;;;;29.00;20.57;;;9.60;99.90;;;;;;5066669;28;21000;-77
2023/04/17 00:02:46;;;;;;;30.00;21.20;;;9.60;99.90;;;;;;5067801;28;20513;-76
2023/04/17 00:05:12;;;;;;;31.35;20.77;;;9.60;99.90;;;;;;5065800;28;20414;-76
2023/04/17 00:07:38;;;;;;;33.03;21.40;;;9.60;99.90;;;;;;5068626;28;20931;-76
2023/04/17 00:10:08;;;;;;;31.55;21.23;;;9.60;99.90;;;;;;5065810;28;20789;-77
2023/04/17 00:12:34;;;;;;;36.08;21.25;;;9.50;99.90;;;;;;5059018;28;20478;-77
2023/04/17 00:14:59;;;;;;;39.33;22.35;;;9.60;99.90;;;;;;5080637;28;20407;-77
2023/04/17 00:17:25;;;;;;;33.20;21.73;;;9.50;99.90;;;;;;5086083;28;20496;-76
2023/04/17 00:19:51;;;;;;;37.72;23.40;;;9.50;99.90;;;;;;5054346;28;20419;-77
2023/04/17 00:22:16;;;;;;;34.67;22.30;;;9.50;99.90;;;;;;5067376;28;20920;-76
2023/04/17 00:24:42;;;;;;;38.70;22.83;;;9.50;99.90;;;;;;5082061;28;20407;-77
2023/04/17 00:27:08;;;;;;;37.47;23.02;;;9.50;99.90;;;;;;5067456;28;20509;-77
2023/04/17 00:29:36;;;;;;;33.13;21.90;;;9.50;99.90;;;;;;5063571;28;20989;-77
2023/04/17 00:32:02;;;;;;;37.20;22.05;;;9.40;99.90;;;;;;5062438;28;20522;-77
2023/04/17 00:34:28;;;;;;;36.85;23.20;;;9.40;99.90;;;;;;5057281;28;20417;-77
2023/04/17 00:36:53;;;;;;;41.72;23.75;;;9.40;99.90;;;;;;5061823;28;20446;-77
2023/04/17 00:39:19;;;;;;;38.97;24.00;;;9.40;99.90;;;;;;5057370;28;20416;-77
2023/04/17 00:41:45;;;;;;;36.85;22.63;;;9.40;99.90;;;;;;5055221;28;20410;-77
2023/04/17 00:44:10;;;;;;;35.33;22.73;;;9.50;99.90;;;;;;5055018;28;20409;-77
2023/04/17 00:46:36;;;;;;;33.70;21.70;;;9.40;99.90;;;;;;5046209;28;20420;-77
2023/04/17 00:49:02;;;;;;;35.53;21.92;;;9.50;99.90;;;;;;5055907;28;20444;-78
2023/04/17 00:51:28;;;;;;;33.63;22.42;;;9.40;99.90;;;;;;5062122;28;20540;-77
2023/04/17 00:53:54;;;;;;;41.17;23.13;;;9.40;99.90;;;;;;5058549;28;20480;-77
2023/04/17 00:56:21;;;;;;;37.75;22.75;;;9.40;99.90;;;;;;5057101;28;20482;-77
2023/04/17 00:58:47;;;;;;;36.15;23.27;;;9.40;99.90;;;;;;5062290;28;20422;-77
2023/04/17 01:01:13;;;;;;;37.37;22.93;;;9.40;99.90;;;;;;5064803;28;20415;-77
2023/04/17 01:03:39;;;;;;;36.97;23.83;;;9.40;99.90;;;;;;5062049;28;21023;-77
2023/04/17 01:06:05;;;;;;;35.67;24.17;;;9.40;99.90;;;;;;5064037;28;20519;-78
2023/04/17 01:08:41;;;;;;;38.80;23.95;;;9.40;99.90;;;;;;5063260;28;20447;-77
2023/04/17 01:11:08;;;;;;;38.22;23.25;;;9.40;99.90;;;;;;5065519;28;20412;-78
2023/04/17 01:13:33;;;;;;;36.20;23.70;;;9.40;99.90;;;;;;5061485;28;21005;-77
2023/04/17 01:15:59;;;;;;;35.38;23.83;;;9.40;99.90;;;;;;5055182;28;20476;-78
2023/04/17 01:18:24;;;;;;;38.40;23.73;;;9.40;99.90;;;;;;5048542;28;20930;-78
2023/04/17 01:20:50;;;;;;;36.05;24.02;;;9.40;99.90;;;;;;5054093;28;20793;-77
2023/04/17 01:23:16;;;;;;;38.00;24.40;;;9.40;99.90;;;;;;5047794;28;20428;-78
2023/04/17 01:25:41;;;;;;;40.13;25.75;;;9.40;99.90;;;;;;5045924;28;20411;-78
2023/04/17 01:28:07;;;;;;;39.57;25.13;;;9.40;99.90;;;;;;5045373;28;21208;-78
2023/04/17 01:30:34;;;;;;;43.00;25.50;;;9.40;99.90;;;;;;5057443;28;20422;-78
2023/04/17 01:32:59;;;;;;;41.97;25.30;;;9.40;99.90;;;;;;5051537;28;20430;-77
2023/04/17 01:35:25;;;;;;;44.00;27.02;;;9.40;99.90;;;;;;5061770;28;20418;-78
2023/04/17 01:37:51;;;;;;;42.77;26.30;;;9.30;99.90;;;;;;5064240;28;20407;-77
2023/04/17 01:40:16;;;;;;;44.20;26.45;;;9.30;99.90;;;;;;5058667;28;20487;-78
2023/04/17 01:42:42;;;;;;;43.80;26.02;;;9.40;99.90;;;;;;5040101;28;20405;-78
2023/04/17 01:45:08;;;;;;;43.87;26.23;;;9.30;99.90;;;;;;5032826;28;20451;-77
2023/04/17 01:47:34;;;;;;;45.28;26.65;;;9.40;99.90;;;;;;5050041;28;20407;-77
2023/04/17 01:50:00;;;;;;;46.00;26.33;;;9.30;99.90;;;;;;5049140;28;20410;-78
2023/04/17 01:52:25;;;;;;;41.45;25.63;;;9.30;99.90;;;;;;5052205;28;20453;-78
2023/04/17 01:54:51;;;;;;;44.00;25.47;;;9.30;99.90;;;;;;5059038;28;20961;-78
2023/04/17 01:57:17;;;;;;;44.83;25.30;;;9.40;99.90;;;;;;5060900;28;20436;-78
2023/04/17 01:59:42;;;;;;;43.63;26.03;;;9.40;99.90;;;;;;5049631;28;20790;-77
2023/04/17 02:02:08;;;;;;;44.55;25.88;;;9.30;99.90;;;;;;5049811;28;20412;-77
2023/04/17 02:04:34;;;;;;;43.20;26.20;;;9.30;99.90;;;;;;5050244;28;20413;-78
2023/04/17 02:06:59;;;;;;;40.35;24.50;;;9.30;99.90;;;;;;5032478;28;20525;-78
2023/04/17 02:09:25;;;;;;;41.67;24.47;;;9.30;99.90;;;;;;5049432;28;20448;-78
2023/04/17 02:11:51;;;;;;;44.53;25.27;;;9.30;99.90;;;;;;5054619;28;20478;-78
2023/04/17 02:14:17;;;;;;;42.15;24.58;;;9.30;99.90;;;;;;5068907;28;20443;-78
2023/04/17 02:16:44;;;;;;;46.27;26.97;;;9.30;99.90;;;;;;5067780;28;20404;-78
2023/04/17 02:19:10;;;;;;;51.35;27.23;;;9.30;99.90;;;;;;5052426;28;20406;-78
2023/04/17 02:21:36;;;;;;;52.47;28.85;;;9.30;99.90;;;;;;5050360;28;20531;-78
2023/04/17 02:24:01;;;;;;;55.07;28.57;;;9.30;99.90;;;;;;5050039;28;21044;-78
2023/04/17 02:26:27;;;;;;;61.08;29.77;;;9.30;99.90;;;;;;5049936;28;20405;-77
2023/04/17 02:28:53;;;;;;;64.07;29.20;;;9.20;99.90;;;;;;5048897;28;20428;-77
2023/04/17 02:31:18;;;;;;;62.25;29.02;;;9.20;99.90;;;;;;5051189;28;20468;-77
2023/04/17 02:33:44;;;;;;;60.17;29.30;;;9.20;99.90;;;;;;5070326;28;20427;-77
2023/04/17 02:36:09;;;;;;;59.65;27.48;;;9.20;99.90;;;;;;5080683;28;20480;-77
2023/04/17 02:38:36;;;;;;;60.10;27.97;;;9.20;99.90;;;;;;5071557;28;20486;-78
2023/04/17 02:41:02;;;;;;;59.33;27.65;;;9.20;99.90;;;;;;5080502;28;20480;-77
2023/04/17 02:43:28;;;;;;;55.00;26.75;;;9.20;99.90;;;;;;5071366;28;20396;-78
2023/04/17 02:45:54;;;;;;;55.95;27.55;;;9.10;99.90;;;;;;5069822;28;20403;-77
2023/04/17 02:48:20;;;;;;;54.03;26.70;;;9.20;99.90;;;;;;5051510;28;20408;-78
2023/04/17 02:50:45;;;;;;;54.83;27.58;;;9.20;99.90;;;;;;5080731;28;20394;-78
2023/04/17 02:53:11;;;;;;;55.95;27.85;;;9.10;99.90;;;;;;5053606;28;20427;-77
2023/04/17 02:55:37;;;;;;;54.17;28.00;;;9.10;99.90;;;;;;5079498;28;20455;-78
2023/04/17 02:58:02;;;;;;;57.08;28.63;;;9.20;99.90;;;;;;5057669;28;20895;-78
2023/04/17 03:00:28;;;;;;;63.97;28.87;;;9.20;99.90;;;;;;5088977;28;20402;-78
2023/04/17 03:02:54;;;;;;;59.13;28.15;;;9.10;99.90;;;;;;5088354;28;20405;-78
2023/04/17 03:05:22;;;;;;;59.03;28.83;;;9.10;99.90;;;;;;5054491;28;20481;-77
2023/04/17 03:07:51;;;;;;;56.53;29.27;;;9.10;99.90;;;;;;5053414;28;20503;-78
2023/04/17 03:10:17;;;;;;;53.55;27.13;;;9.10;99.90;;;;;;5061987;28;20406;-78
2023/04/17 03:12:42;;;;;;;53.13;27.70;;;9.00;99.90;;;;;;5071542;28;20424;-78
2023/04/17 03:15:08;;;;;;;52.65;26.92;;;9.00;99.90;;;;;;5069604;28;20400;-77
2023/04/17 03:17:34;;;;;;;52.28;28.35;;;9.10;99.90;;;;;;5069156;28;20923;-77
2023/04/17 03:20:00;;;;;;;48.27;27.20;;;9.10;99.90;;;;;;5050999;28;20408;-78
2023/04/17 03:22:25;;;;;;;50.80;28.65;;;9.00;99.90;;;;;;5051685;28;20494;-77
2023/04/17 03:24:51;;;;;;;53.57;28.97;;;9.00;99.90;;;;;;5069406;28;20408;-77
2023/04/17 03:27:23;;;;;;;54.33;29.33;;;9.00;99.90;;;;;;5069515;28;20408;-77
2023/04/17 03:29:50;;;;;;;52.63;29.60;;;9.00;99.90;;;;;;5051153;28;20411;-77
2023/04/17 03:32:16;;;;;;;54.38;29.30;;;9.00;99.90;;;;;;5083518;28;20417;-77
2023/04/17 03:34:41;;;;;;;52.17;29.52;;;9.00;99.90;;;;;;5087565;28;20397;-78
2023/04/17 03:37:07;;;;;;;55.03;29.77;;;9.00;99.90;;;;;;5084633;28;20402;-77
2023/04/17 03:39:33;;;;;;;55.13;29.60;;;9.00;99.90;;;;;;5086692;28;20432;-77
2023/04/17 03:41:58;;;;;;;51.05;29.88;;;9.00;99.90;;;;;;5066225;28;20398;-77
2023/04/17 03:44:24;;;;;;;52.77;30.30;;;9.00;99.90;;;;;;5076853;28;20796;-77
2023/04/17 03:46:49;;;;;;;52.13;29.98;;;9.00;99.90;;;;;;5080318;28;20400;-77
2023/04/17 03:49:15;;;;;;;50.03;28.77;;;9.00;99.90;;;;;;5085503;28;20394;-78
2023/04/17 03:51:41;;;;;;;46.30;28.52;;;9.00;99.90;;;;;;5076059;28;20736;-78
2023/04/17 03:54:07;;;;;;;43.53;27.42;;;9.00;99.90;;;;;;5059474;28;20483;-77
2023/04/17 03:56:33;;;;;;;41.95;26.42;;;9.00;99.90;;;;;;5067918;28;20523;-77
2023/04/17 03:58:59;;;;;;;42.30;25.73;;;9.00;99.90;;;;;;5067017;28;20457;-77
2023/04/17 04:01:27;;;;;;;39.58;25.30;;;8.90;99.90;;;;;;5067755;28;20403;-78
2023/04/17 04:03:53;;;;;;;36.90;24.13;;;8.90;99.90;;;;;;5068265;28;21017;-78
2023/04/17 04:06:19;;;;;;;38.15;24.92;;;8.90;99.90;;;;;;5068311;28;20403;-77
2023/04/17 04:08:45;;;;;;;39.08;24.58;;;8.90;99.90;;;;;;5067992;28;20924;-78
2023/04/17 04:11:11;;;;;;;36.83;24.17;;;8.80;99.90;;;;;;5067845;28;20396;-77
2023/04/17 04:13:36;;;;;;;38.10;25.23;;;8.90;99.90;;;;;;5078674;28;20422;-78
2023/04/17 04:16:02;;;;;;;35.87;24.20;;;8.90;99.90;;;;;;5085603;28;20481;-77
2023/04/17 04:18:27;;;;;;;37.67;25.00;;;8.80;99.90;;;;;;5087431;28;20402;-76
2023/04/17 04:20:53;;;;;;;35.97;24.17;;;8.80;99.90;;;;;;5085367;28;20903;-77
2023/04/17 04:23:19;;;;;;;35.00;24.40;;;8.90;99.90;;;;;;5069014;28;20433;-77
2023/04/17 04:25:48;;;;;;;37.10;25.00;;;8.90;99.90;;;;;;5085127;28;20406;-77
2023/04/17 04:28:14;;;;;;;36.90;24.90;;;8.90;99.90;;;;;;5086327;28;20402;-77
2023/04/17 04:30:40;;;;;;;34.85;24.65;;;8.80;99.90;;;;;;5084490;28;20409;-77
2023/04/17 04:33:07;;;;;;;34.90;24.35;;;8.90;99.90;;;;;;5085147;28;20460;-77
2023/04/17 04:35:33;;;;;;;33.78;23.75;;;8.80;99.90;;;;;;5084730;28;20936;-78
2023/04/17 04:38:01;;;;;;;35.85;23.33;;;8.80;99.90;;;;;;5086296;28;20405;-77
2023/04/17 04:40:34;;;;;;;31.38;22.98;;;8.80;99.90;;;;;;5065922;28;20903;-78
2023/04/17 04:43:00;;;;;;;29.42;21.60;;;8.80;99.90;;;;;;5073278;28;20905;-77
2023/04/17 04:45:26;;;;;;;26.75;19.27;;;8.80;99.90;;;;;;5085697;28;20417;-77
2023/04/17 04:47:51;;;;;;;25.30;19.20;;;8.80;99.90;;;;;;5084671;28;20398;-77
2023/04/17 04:50:18;;;;;;;24.57;18.10;;;8.90;99.90;;;;;;5084871;28;20405;-77
2023/04/17 04:52:43;;;;;;;22.60;16.83;;;8.90;99.90;;;;;;5073505;28;20929;-77
2023/04/17 04:55:09;;;;;;;21.80;16.10;;;8.90;99.90;;;;;;5049389;28;20396;-77
2023/04/17 04:57:35;;;;;;;20.03;15.70;;;8.90;99.90;;;;;;5062006;28;20413;-77
2023/04/17 05:00:00;;;;;;;18.77;15.00;;;8.90;99.90;;;;;;5049231;28;20442;-77
2023/04/17 05:02:26;;;;;;;20.02;15.32;;;8.90;99.90;;;;;;5067414;28;20435;-77
2023/04/17 05:04:52;;;;;;;22.33;16.30;;;8.90;99.90;;;;;;5067501;28;20483;-77
2023/04/17 05:07:17;;;;;;;23.67;18.00;;;8.90;99.90;;;;;;5066715;28;20757;-77
2023/04/17 05:09:43;;;;;;;21.97;18.67;;;8.90;99.90;;;;;;5086536;28;20401;-77
2023/04/17 05:12:08;;;;;;;24.60;18.80;;;9.00;99.90;;;;;;5087112;28;20833;-77
2023/04/17 05:14:34;;;;;;;23.33;19.60;;;9.00;99.90;;;;;;5069127;28;20392;-78
2023/04/17 05:17:00;;;;;;;29.00;19.88;;;9.00;99.90;;;;;;5083831;28;20409;-78
2023/04/17 05:19:25;;;;;;;22.63;17.80;;;9.00;99.90;;;;;;5075790;28;20467;-77
2023/04/17 05:21:51;;;;;;;21.25;17.58;;;9.00;99.90;;;;;;5055617;28;20401;-77
2023/04/17 05:24:17;;;;;;;20.20;16.57;;;9.10;99.90;;;;;;5090211;28;20406;-77
2023/04/17 05:26:42;;;;;;;20.85;16.42;;;9.10;99.90;;;;;;5090637;28;20405;-77
2023/04/17 05:29:08;;;;;;;21.47;17.40;;;9.10;99.90;;;;;;5088417;28;20791;-78
2023/04/17 05:31:34;;;;;;;22.90;16.98;;;9.10;99.90;;;;;;5067757;28;20422;-77
2023/04/17 05:33:59;;;;;;;21.07;16.53;;;9.20;99.90;;;;;;5061565;28;20422;-77
2023/04/17 05:36:25;;;;;;;23.03;16.07;;;9.20;99.90;;;;;;5061889;28;20442;-77
2023/04/17 05:38:51;;;;;;;25.00;16.95;;;9.20;99.90;;;;;;5061207;28;20404;-77
2023/04/17 05:41:17;;;;;;;24.15;17.00;;;9.30;99.90;;;;;;5060336;28;20800;-77
2023/04/17 05:43:43;;;;;;;21.77;15.53;;;9.30;99.90;;;;;;5064828;28;20400;-78
2023/04/17 05:46:08;;;;;;;19.95;16.17;;;9.30;99.90;;;;;;5067344;28;20417;-77
2023/04/17 05:48:34;;;;;;;22.92;16.35;;;9.30;99.90;;;;;;5064928;28;20407;-77
2023/04/17 05:51:00;;;;;;;20.70;15.70;;;9.30;99.90;;;;;;5067842;28;20450;-77
2023/04/17 05:53:25;;;;;;;21.20;15.25;;;9.40;99.90;;;;;;5038395;28;20431;-78
2023/04/17 05:55:51;;;;;;;21.10;15.97;;;9.40;99.90;;;;;;5068638;28;20400;-78
2023/04/17 05:58:16;;;;;;;21.38;16.02;;;9.40;99.90;;;;;;5069829;28;20442;-78
2023/04/17 06:00:42;;;;;;;21.27;15.40;;;9.40;99.90;;;;;;5069710;28;20805;-77
2023/04/17 06:03:08;;;;;;;22.48;17.23;;;9.40;99.90;;;;;;5069307;28;20403;-77
2023/04/17 06:05:33;;;;;;;19.73;15.57;;;9.50;99.90;;;;;;5069838;28;20495;-77
2023/04/17 06:08:00;;;;;;;21.67;17.03;;;9.50;99.90;;;;;;5069985;28;20424;-78
2023/04/17 06:10:25;;;;;;;20.88;16.08;;;9.50;99.90;;;;;;5056299;28;20405;-78
2023/04/17 06:12:51;;;;;;;26.70;17.15;;;9.50;99.90;;;;;;5055021;28;20435;-77
2023/04/17 06:15:17;;;;;;;19.83;16.00;;;9.50;99.90;;;;;;5058496;28;20444;-78
2023/04/17 06:17:42;;;;;;;20.77;16.55;;;9.50;99.90;;;;;;5050146;28;20488;-78
2023/04/17 06:20:11;;;;;;;21.77;17.10;;;9.50;99.90;;;;;;5050467;28;20546;-78
2023/04/17 06:22:38;;;;;;;20.30;16.70;;;9.60;99.90;;;;;;5050517;28;21310;-78
2023/04/17 06:25:05;;;;;;;21.65;15.10;;;9.60;99.90;;;;;;5050138;28;20422;-78
2023/04/17 06:27:31;;;;;;;20.05;14.63;;;9.70;99.90;;;;;;5055783;28;20400;-77
2023/04/17 06:29:56;;;;;;;26.53;16.03;;;9.80;99.90;;;;;;5068390;28;20418;-77
2023/04/17 06:32:22;;;;;;;18.85;14.32;;;9.80;99.90;;;;;;5048637;28;20437;-78
2023/04/17 06:34:48;;;;;;;20.35;14.82;;;9.80;99.90;;;;;;5060684;28;20912;-77
2023/04/17 06:37:13;;;;;;;29.77;16.37;;;9.90;99.90;;;;;;5066929;28;20499;-77
2023/04/17 06:39:39;;;;;;;21.83;14.43;;;9.90;99.90;;;;;;5058923;28;20441;-77
2023/04/17 06:42:07;;;;;;;18.80;13.70;;;10.00;99.90;;;;;;5048566;28;20803;-77
2023/04/17 06:44:33;;;;;;;18.90;12.57;;;10.00;99.90;;;;;;5056655;28;20452;-77
2023/04/17 06:47:02;;;;;;;17.13;12.57;;;10.10;99.90;;;;;;5065934;28;20830;-77
2023/04/17 06:49:30;;;;;;;18.15;13.38;;;10.10;99.90;;;;;;5049535;28;20396;-77
2023/04/17 06:51:56;;;;;;;17.60;13.70;;;10.10;99.90;;;;;;5043204;28;20760;-78
2023/04/17 06:54:22;;;;;;;18.80;13.70;;;10.20;99.90;;;;;;5046510;28;20842;-77
2023/04/17 06:56:47;;;;;;;17.50;12.57;;;10.30;99.90;;;;;;5049017;28;20540;-77
2023/04/17 06:59:13;;;;;;;18.80;13.03;;;10.20;99.90;;;;;;5049451;28;20488;-75
2023/04/17 07:01:39;;;;;;;15.63;12.70;;;10.30;99.90;;;;;;5046588;28;20996;-75
2023/04/17 07:04:05;;;;;;;23.25;12.55;;;10.40;99.90;;;;;;5049360;28;21012;-76
2023/04/17 07:06:33;;;;;;;15.98;11.13;;;10.40;99.90;;;;;;5046854;28;20855;-76
2023/04/17 07:09:00;;;;;;;17.65;12.20;;;10.50;99.90;;;;;;5045855;28;20418;-76
2023/04/17 07:11:25;;;;;;;19.87;12.37;;;10.50;99.90;;;;;;5030706;28;21354;-76
2023/04/17 07:13:51;;;;;;;17.23;12.95;;;10.60;99.90;;;;;;5048072;28;20542;-76
2023/04/17 07:16:17;;;;;;;18.10;12.70;;;10.70;99.90;;;;;;5048008;28;20415;-76
2023/04/17 07:18:42;;;;;;;17.30;11.20;;;10.70;99.90;;;;;;5049018;28;20440;-76
2023/04/17 07:21:08;;;;;;;17.90;12.43;;;10.80;99.90;;;;;;5047796;28;20448;-76
2023/04/17 07:23:34;;;;;;;18.23;12.60;;;10.80;99.90;;;;;;5053581;28;20867;-76
2023/04/17 07:25:59;;;;;;;19.40;12.43;;;10.90;99.90;;;;;;5063347;28;20399;-77
2023/04/17 07:28:25;;;;;;;15.63;11.37;;;10.90;99.90;;;;;;5054953;28;20481;-78
2023/04/17 07:30:53;;;;;;;16.73;11.73;;;11.00;99.90;;;;;;5047067;28;20907;-77
2023/04/17 07:33:19;;;;;;;16.45;11.90;;;11.00;99.90;;;;;;5070141;28;20435;-76
2023/04/17 07:35:45;;;;;;;16.88;12.07;;;11.00;99.90;;;;;;5078139;28;20406;-78
2023/04/17 07:38:11;;;;;;;16.98;11.15;;;11.00;99.90;;;;;;5071950;28;20435;-77
2023/04/17 07:40:37;;;;;;;18.90;12.30;;;11.00;99.90;;;;;;5061168;28;20443;-77
2023/04/17 07:43:02;;;;;;;17.30;12.25;;;11.00;99.90;;;;;;5066883;28;20404;-77
2023/04/17 07:45:28;;;;;;;14.80;10.73;;;11.10;99.90;;;;;;5078876;28;20406;-77
2023/04/17 07:47:54;;;;;;;16.30;10.90;;;11.10;99.90;;;;;;5056202;28;20440;-77
2023/04/17 07:50:20;;;;;;;16.60;11.75;;;11.10;99.90;;;;;;5079402;28;20951;-77
2023/04/17 07:52:46;;;;;;;17.58;11.05;;;11.10;99.90;;;;;;5054429;28;20430;-77
2023/04/17 07:55:12;;;;;;;15.75;11.73;;;11.20;99.90;;;;;;5103441;28;20455;-78
2023/04/17 07:57:41;;;;;;;15.57;11.57;;;11.20;99.90;;;;;;5056372;28;20441;-77
2023/04/17 08:00:12;;;;;;;15.93;11.60;;;11.30;99.90;;;;;;5061193;28;21332;-78
2023/04/17 08:02:38;;;;;;;18.13;12.23;;;11.30;99.90;;;;;;5068024;28;20960;-77
2023/04/17 08:05:05;;;;;;;15.93;11.98;;;11.40;99.90;;;;;;5087468;28;20473;-78
2023/04/17 08:07:31;;;;;;;16.00;11.73;;;11.50;99.90;;;;;;5068328;28;20402;-78
2023/04/17 08:09:56;;;;;;;18.52;12.85;;;11.60;99.90;;;;;;5068746;28;20407;-78
2023/04/17 08:12:22;;;;;;;30.07;13.13;;;11.70;99.90;;;;;;5085413;28;20426;-78
2023/04/17 08:14:48;;;;;;;15.32;11.07;;;11.80;99.90;;;;;;5072157;28;20415;-77
2023/04/17 08:17:16;;;;;;;17.03;11.77;;;11.90;99.90;;;;;;5032932;28;20399;-77
2023/04/17 08:19:42;;;;;;;17.40;12.23;;;12.00;99.90;;;;;;5060286;28;20431;-78
2023/04/17 08:22:07;;;;;;;18.70;12.10;;;12.10;99.90;;;;;;5067969;28;20762;-77
2023/04/17 08:24:33;;;;;;;17.25;11.90;;;12.10;99.90;;;;;;5051766;28;20410;-78
2023/04/17 08:26:59;;;;;;;19.17;12.87;;;12.20;99.90;;;;;;5052966;28;20419;-77
2023/04/17 08:29:25;;;;;;;17.27;12.40;;;12.20;99.90;;;;;;5067885;28;20409;-78
2023/04/17 08:31:50;;;;;;;17.83;11.77;;;12.30;99.90;;;;;;5042612;28;20416;-77
2023/04/17 08:34:16;;;;;;;15.83;11.73;;;12.30;99.90;;;;;;5054245;28;20408;-78
2023/04/17 08:36:42;;;;;;;18.92;12.70;;;12.40;99.90;;;;;;5060863;28;20765;-78
2023/04/17 08:39:09;;;;;;;15.53;11.17;;;12.40;99.90;;;;;;5063435;28;20924;-78
2023/04/17 08:41:42;;;;;;;15.20;11.32;;;12.40;99.90;;;;;;5061387;28;20486;-79
2023/04/17 08:44:07;;;;;;;14.02;10.40;;;12.50;99.90;;;;;;5050897;28;20434;-77
2023/04/17 08:46:35;;;;;;;18.67;11.80;;;12.50;99.90;;;;;;5059996;28;20409;-78
2023/04/17 08:49:01;;;;;;;18.30;11.60;;;12.60;99.90;;;;;;5066371;28;20553;-78
2023/04/17 08:51:27;;;;;;;14.20;11.52;;;12.70;99.90;;;;;;5052735;28;21016;-77
2023/04/17 08:53:53;;;;;;;16.70;12.13;;;12.90;99.90;;;;;;5049568;28;20473;-75
2023/04/17 08:56:20;;;;;;;15.97;11.50;;;13.00;99.90;;;;;;5047091;28;20791;-75
2023/04/17 08:58:45;;;;;;;14.98;11.30;;;13.10;99.90;;;;;;5050923;28;20455;-78
2023/04/17 09:01:16;;;;;;;13.53;11.27;;;13.20;99.90;;;;;;5048340;28;21803;-74
2023/04/17 09:03:44;;;;;;;15.23;11.60;;;13.20;99.90;;;;;;5049746;28;20470;-75
2023/04/17 09:06:10;;;;;;;13.93;10.80;;;13.30;99.90;;;;;;5049668;28;20397;-75
2023/04/17 09:08:37;;;;;;;14.82;10.27;;;13.50;99.90;;;;;;5049539;28;20401;-75
2023/04/17 09:11:04;;;;;;;15.45;11.57;;;13.70;99.90;;;;;;5052334;28;20407;-76
2023/04/17 09:13:39;;;;;;;17.40;11.55;;;13.80;99.90;;;;;;5051334;28;20982;-75
2023/04/17 09:16:09;;;;;;;14.02;10.75;;;13.80;99.90;;;;;;5048635;28;20416;-75
2023/04/17 09:18:36;;;;;;;15.20;11.02;;;13.80;99.90;;;;;;5052952;28;20476;-75
2023/04/17 09:21:03;;;;;;;13.07;10.25;;;13.70;99.90;;;;;;5052664;28;20799;-76
2023/04/17 09:23:31;;;;;;;14.48;11.05;;;13.70;99.90;;;;;;5048782;28;20420;-76
2023/04/17 09:26:13;;;;;;;14.30;10.88;;;13.70;99.90;;;;;;5059483;28;20411;-74
2023/04/17 09:28:40;;;;;;;19.88;10.93;;;13.60;99.90;;;;;;5051843;28;20407;-74
2023/04/17 09:31:27;;;;;;;17.08;10.30;;;13.60;99.90;;;;;;5053790;28;20457;-73
2023/04/17 09:34:07;;;;;;;16.63;10.95;;;13.60;99.90;;;;;;5056120;28;20518;-74
2023/04/17 09:36:37;;;;;;;13.73;9.80;;;13.60;99.90;;;;;;5056555;28;20420;-74
2023/04/17 09:39:05;;;;;;;13.90;10.30;;;13.70;99.90;;;;;;5094229;28;20404;-74
2023/04/17 09:41:37;;;;;;;13.43;9.95;;;13.70;99.90;;;;;;5074653;28;20945;-74
2023/04/17 09:44:05;;;;;;;14.88;10.43;;;13.90;99.90;;;;;;5078750;28;20394;-73
2023/04/17 09:46:37;;;;;;;14.10;10.63;;;13.90;99.90;;;;;;5051374;28;21039;-74
2023/04/17 09:49:52;;;;;;;14.05;10.90;;;14.00;99.90;;;;;;5047552;28;20503;-74
2023/04/17 09:52:19;;;;;;;15.45;11.00;;;14.00;99.90;;;;;;5060717;28;20427;-74
2023/04/17 09:54:46;;;;;;;14.00;10.40;;;14.20;99.90;;;;;;5085174;28;20445;-74
2023/04/17 09:57:12;;;;;;;13.73;10.40;;;14.40;99.90;;;;;;5089480;28;20398;-74
2023/04/17 09:59:44;;;;;;;14.07;10.60;;;14.60;99.90;;;;;;5060811;28;20477;-74
2023/04/17 10:02:13;;;;;;;28.92;12.02;;;14.80;99.90;;;;;;5088684;28;20422;-74
2023/04/17 10:04:40;;;;;;;12.90;10.43;;;15.00;99.90;;;;;;5073572;28;20411;-74
2023/04/17 10:07:06;;;;;;;12.90;10.50;;;15.20;99.90;;;;;;5086611;28;20926;-73
2023/04/17 10:09:32;;;;;;;14.73;11.13;;;15.40;99.90;;;;;;5076875;28;20449;-74
2023/04/17 10:12:00;;;;;;;12.32;10.07;;;15.60;99.90;;;;;;5084750;28;20406;-74
2023/04/17 10:14:37;;;;;;;14.30;11.10;;;15.90;99.90;;;;;;5060367;28;20432;-74
2023/04/17 10:17:24;;;;;;;14.20;11.87;;;16.20;99.90;;;;;;5078969;28;20406;-74
2023/04/17 10:19:50;;;;;;;13.90;11.60;;;16.50;99.90;;;;;;5075474;28;20426;-74
2023/04/17 10:22:19;;;;;;;14.25;11.15;;;16.60;99.90;;;;;;5078740;28;20749;-74
2023/04/17 10:25:11;;;;;;;15.90;11.82;;;16.80;99.90;;;;;;5077538;28;20844;-74
2023/04/17 10:27:40;;;;;;;13.63;12.07;;;17.10;99.90;;;;;;5079985;28;20461;-74
2023/04/17 10:30:13;;;;;;;14.55;11.77;;;17.20;99.90;;;;;;5077758;28;20775;-74
2023/04/17 10:32:41;;;;;;;14.18;11.50;;;17.30;99.90;;;;;;5096983;28;20426;-74
2023/04/17 10:35:16;;;;;;;14.75;11.50;;;17.50;99.90;;;;;;5081428;28;20520;-74
2023/04/17 10:37:50;;;;;;;15.68;11.52;;;17.90;99.90;;;;;;5076739;28;20418;-74
2023/04/17 10:40:29;;;;;;;13.95;11.25;;;18.20;99.90;;;;;;5073894;28;20909;-74
2023/04/17 10:43:21;;;;;;;13.60;11.18;;;18.50;99.90;;;;;;5073527;28;20426;-75
2023/04/17 10:46:03;;;;;;;17.20;12.38;;;18.70;99.90;;;;;;5065463;28;20868;-74
2023/04/17 10:48:32;;;;;;;13.43;11.57;;;18.90;99.90;;;;;;5052781;28;20415;-74
2023/04/17 10:50:58;;;;;;;13.55;10.95;;;18.90;99.90;;;;;;5067248;28;20412;-74
2023/04/17 10:53:36;;;;;;;14.73;11.20;;;19.00;99.90;;;;;;5083697;28;20435;-74
2023/04/17 10:56:02;;;;;;;14.65;11.45;;;19.20;99.90;;;;;;5050361;28;20461;-74
2023/04/17 10:58:28;;;;;;;13.60;11.87;;;19.20;99.90;;;;;;5053149;28;20406;-74
2023/04/17 11:00:54;;;;;;;15.30;12.20;;;19.30;99.90;;;;;;5066481;28;20412;-73
2023/04/17 11:03:21;;;;;;;31.10;13.68;;;19.40;99.90;;;;;;5054073;28;20426;-74
2023/04/17 11:05:48;;;;;;;37.88;15.95;;;19.50;99.90;;;;;;5068376;28;20408;-73
2023/04/17 11:08:13;;;;;;;15.45;12.27;;;19.60;99.90;;;;;;5051033;28;20832;-73
2023/04/17 11:10:39;;;;;;;16.65;13.07;;;19.70;99.90;;;;;;5067967;28;20404;-73
2023/04/17 11:13:05;;;;;;;20.63;13.40;;;19.70;99.90;;;;;;5070869;28;20490;-73
2023/04/17 11:15:33;;;;;;;13.90;12.38;;;19.70;99.90;;;;;;5054215;28;20424;-73
2023/04/17 11:17:59;;;;;;;;;;;19.80;99.90;;;;;;5089306;28;20119;-73
2023/04/17 11:20:26;;;;;;;;;;;19.90;99.90;;;;;;5052120;28;19920;-73
2023/04/17 11:22:52;;;;;;;;;;;19.80;99.90;;;;;;5076754;28;19930;-73
2023/04/17 11:25:21;;;;;;;;;;;19.70;99.90;;;;;;5067031;28;20015;-73
2023/04/17 11:28:01;;;;;;;;;;;19.60;99.90;;;;;;5066174;28;19993;-73
2023/04/17 11:30:27;;;;;;;;;;;19.50;99.90;;;;;;5069400;28;20298;-73
2023/04/17 11:32:53;;;;;;;;;;;19.40;99.90;;;;;;5071386;28;19971;-73
2023/04/17 11:35:23;;;;;;;;;;;19.40;99.90;;;;;;5053614;28;19959;-72
2023/04/17 11:38:04;;;;;;;;;;;19.50;99.90;;;;;;5072582;28;19927;-73
2023/04/17 11:40:29;;;;;;;17.45;13.00;;;19.70;99.90;;;;;;5063801;28;19920;-73
2023/04/17 11:42:55;;;;;;;17.25;14.15;;;19.60;99.90;;;;;;5066379;28;20429;-73
2023/04/17 11:45:20;;;;;;;;;;;19.70;99.90;;;;;;5065495;28;20044;-73
2023/04/17 11:47:46;;;;;;;;;;;20.00;99.90;;;;;;5072417;28;19928;-73
2023/04/17 11:50:15;;;;;;;;;;;20.00;99.90;;;;;;5069482;28;20008;-73
2023/04/17 11:52:40;;;;;;;;;;;20.00;99.90;;;;;;5068789;28;20020;-72
2023/04/17 11:55:07;;;;;;;;;;;19.90;99.90;;;;;;5079650;28;19974;-73
2023/04/17 11:57:41;;;;;;;;;;;19.90;99.90;;;;;;5068400;28;19921;-72
2023/04/17 12:00:13;;;;;;;;;;;19.80;99.90;;;;;;5051831;28;20398;-73
2023/04/17 12:02:38;;;;;;;;;;;20.00;99.90;;;;;;5049331;28;20294;-73
2023/04/17 12:05:17;;;;;;;;;;;20.20;99.90;;;;;;5049657;28;19928;-73
2023/04/17 12:07:43;;;;;;;17.00;12.80;;;20.40;99.90;;;;;;5064478;28;20074;-74
2023/04/17 12:10:09;;;;;;;16.63;12.45;;;20.60;99.90;;;;;;5058657;28;20094;-73
2023/04/17 12:12:34;;;;;;;;;;;20.70;99.90;;;;;;5047038;28;20518;-73
2023/04/17 12:15:00;;;;;;;;;;;20.90;99.90;;;;;;5103665;28;19920;-73
2023/04/17 12:17:25;;;;;;;;;;;21.10;99.90;;;;;;5050665;28;19950;-73
2023/04/17 12:19:52;;;;;;;;;;;21.20;99.90;;;;;;5060557;28;19927;-76
2023/04/17 12:22:17;;;;;;;;;;;21.20;99.90;;;;;;5085871;28;20374;-73
2023/04/17 12:24:43;;;;;;;;;;;21.20;99.90;;;;;;5087296;28;20057;-73
2023/04/17 12:27:09;;;;;;;;;;;21.00;99.90;;;;;;5055485;28;19969;-73
2023/04/17 12:29:34;;;;;;;;;;;21.00;99.90;;;;;;5089785;28;19928;-73
2023/04/17 12:32:00;;;;;;;;;;;21.00;99.90;;;;;;5080508;28;19920;-73
2023/04/17 12:34:27;;;;;;;;;;;21.00;99.90;;;;;;5086151;28;20401;-73
2023/04/17 12:36:52;;;;;;;;;;;21.10;99.90;;;;;;5083468;28;20410;-73
2023/04/17 12:39:18;;;;;;;;;;;21.20;99.90;;;;;;5076457;28;19964;-72
2023/04/17 12:41:44;;;;;;;;;;;21.30;99.90;;;;;;5053607;28;19931;-70